Airfield :
LOGIN :

Register | Disclaimer

   EN    FR    IT 

 










Legend :    VFR   Marginal VFR   IFR   Intensive IFR   Very Intensive IFR
Visi :
Ceiling :
>= 8 km
>= 3000ft
5 to 8 km
1000 to 3000 ft
1500m to 5 km
500 to 1000 ft
800 to 1500m
200 to 500 ft
< 800m
< 200 ft
Symbols :   Thunderstorms  Fog  Heavy snow  Heavy precipitations  Wind > 20 kt
SIGMETs :     Misc.  Thunderstorms  Icing  Turbulence  Mountain Waves  Volcanic Ashes







- Airport Elevation : -11 ft
- IATA code : AMS


EHAM - Amsterdam Schiphol

CURRENT METAR :
  • 241625Z 31012KT 280V340 CAVOK 16/05 Q1015 NOSIG

EXPIRED METARs :
  • 241555Z 33012KT 300V010 CAVOK 17/04 Q1015 NOSIG
  • 241525Z 33011KT 290V360 CAVOK 17/04 Q1016 NOSIG
  • 241455Z 30012KT 270V340 CAVOK 17/04 Q1016 NOSIG
  • 241425Z 31012KT 270V340 CAVOK 17/06 Q1016 NOSIG
  • 241355Z 31012KT 270V350 CAVOK 17/05 Q1016 NOSIG

TAF TAF EHAM
Valid from the 24 at 12:00 until the 25 at 18:00 UTC


241117Z 2412/2518 30012KT CAVOK
BECMG 2415/2418 33010KT
BECMG 2419/2422 VRB03KT
PROB40
TEMPO 2504/2508 7000 -RA BKN012
BECMG 2510/2513 30008KT SCT035
No reported NOTAMs for that airfield.



MET'MAP, your aeronautical weather chart ! - Copyright ORBIFLY December 2007 - Disclaimer

ORBIFLY MET'MAP TEAM :

Programming & Development : Alexandra Zaïnal
Concept & Development : Baudouin d'Aumeries
Co-Development & Prog : Marc-Olivier Méhu
Technical & hardware support : Manuel Goepfert

Contact : metmap@orbifly.com




SOURCES & CREDITS :

   NOAA